AKDT,Max TemperatureF,Mean TemperatureF,Min TemperatureF,Max Dew PointF,MeanDew PointF,Min DewpointF,Max Humidity, Mean Humidity, Min Humidity, Max Sea Level PressureIn, Mean Sea Level PressureIn, Min Sea Level PressureIn, Max VisibilityMiles, Mean VisibilityMiles, Min VisibilityMiles, Max Wind SpeedMPH, Mean Wind SpeedMPH, Max Gust SpeedMPH,PrecipitationIn, CloudCover, Events, WindDirDegrees
2012-10-1,39,34,28,30,27,25,93,85,62,30.35,30.21,30.07,10,6,2,13,8,,0.04,6,Snow,240
2012-10-2,46,37,28,27,24,22,85,62,32,30.37,30.29,30.21,10,10,10,21,12,28,0.00,5,,120
2012-10-3,51,41,32,28,26,24,73,49,27,30.28,30.19,30.02,10,10,10,23,11,37,0.00,5,,122
2012-10-4,61,48,36,40,35,28,59,46,30,30.02,29.94,29.90,10,10,10,30,16,44,0.00,6,,146
2012-10-5,59,52,43,43,38,33,93,54,28,30.10,30.05,29.99,10,10,10,29,19,43,0.00,6,Rain,216
2012-10-6,48,42,35,40,37,34,100,89,69,30.33,30.18,30.02,10,9,2,14,7,,0.08,7,Rain,264
2012-10-7,42,37,32,38,34,30,100,95,79,30.36,30.30,30.24,10,7,0,6,2,,0.03,7,Fog-Rain,146
2012-10-8,39,36,33,39,36,32,100,96,85,30.35,30.20,30.09,10,5,0,15,3,,0.04,8,Fog-Rain-Snow,284
2012-10-9,37,34,28,34,31,23,100,93,75,30.43,30.38,30.30,10,7,0,12,5,82,0.00,7,Fog,357
2012-10-10,35,27,19,24,21,17,89,74,38,30.39,30.34,30.24,10,10,10,10,5,,0.00,4,,126
2012-10-11,30,22,12,16,13,9,88,71,35,30.30,30.06,29.82,10,10,10,18,6,20,0.00,2,,108
2012-10-12,28,18,7,16,10,3,88,71,41,29.80,29.61,29.50,10,10,10,9,2,,0.00,5,,82
2012-10-13,27,20,12,19,15,11,85,65,44,29.49,29.43,29.34,10,8,2,16,8,21,0.00,7,Snow,107
2012-10-14,26,19,12,20,16,9,96,84,65,29.41,29.31,29.20,10,9,4,9,3,,0.00,6,Snow,270
2012-10-15,21,18,15,19,17,15,96,90,78,29.37,29.25,29.16,10,5,0,12,6,,0.04,8,Fog-Snow,285
2012-10-16,19,16,12,14,13,9,88,85,73,29.79,29.51,29.32,10,6,1,12,5,,0.02,7,Snow,275
2012-10-17,18,10,1,12,8,1,88,85,72,29.98,29.92,29.77,10,9,5,7,3,,0.00,6,Snow,233
2012-10-18,19,14,9,16,12,8,93,86,77,30.14,30.02,29.85,10,8,2,8,5,,0.01,8,Snow,264
2012-10-19,19,17,15,17,16,14,93,88,83,30.43,30.22,30.04,10,6,2,9,7,,0.02,8,Snow,282
2012-10-20,21,20,18,18,16,14,93,85,69,30.66,30.53,30.34,10,9,4,6,3,,0.00,8,Snow,279
2012-10-21,19,11,3,13,8,1,92,80,56,30.66,30.57,30.47,10,10,6,22,9,30,0.00,4,,108
2012-10-22,18,8,-2,6,3,-7,84,70,46,30.59,30.47,30.41,10,10,10,24,15,32,0.00,0,,135
2012-10-23,10,0,-9,3,-6,-13,100,83,71,30.74,30.65,30.52,10,9,0,7,3,,0.00,2,Fog,185
2012-10-24,16,2,-11,6,-5,-15,84,75,51,30.81,30.77,30.74,10,10,10,15,4,,0.00,0,,123
2012-10-25,17,3,-11,6,2,-7,83,72,49,30.76,30.69,30.64,10,10,10,20,8,22,0.01,1,,134
2012-10-26,15,5,-5,5,0,-9,83,73,51,30.63,30.56,30.36,10,10,10,7,3,,0.00,5,,116
2012-10-27,19,8,-2,11,8,6,84,75,59,30.45,30.32,30.08,10,10,9,7,3,,0.00,7,Snow,102
2012-10-28,21,12,3,12,8,0,92,80,56,30.26,30.22,30.06,10,10,10,6,1,,0.00,4,,113
2012-10-29,16,11,6,13,10,3,93,85,76,30.14,29.97,29.90,10,4,0,8,4,,0.08,7,Fog-Snow,249
2012-10-30,15,12,8,13,9,5,93,87,76,30.09,29.99,29.93,8,3,0,8,3,,0.03,8,Fog-Snow,284
2012-10-31,12,4,-4,9,3,-8,92,85,76,30.11,29.98,29.88,10,4,1,7,3,,0.01,7,Snow,235